sensor_id;sensor_type;location;lat;lon;timestamp;pressure;altitude;pressure_sealevel;temperature;humidity
70445;BME280;57902;49.638;11.070;2023-03-21T00:00:35;98491.66;;;7.45;100.00
70445;BME280;57902;49.638;11.070;2023-03-21T00:03:02;98496.00;;;7.42;100.00
70445;BME280;57902;49.638;11.070;2023-03-21T00:05:31;98490.91;;;7.39;100.00
70445;BME280;57902;49.638;11.070;2023-03-21T00:08:11;98487.53;;;7.35;100.00
70445;BME280;57902;49.638;11.070;2023-03-21T00:10:38;98486.72;;;7.33;100.00
70445;BME280;57902;49.638;11.070;2023-03-21T00:13:15;98486.78;;;7.28;100.00
70445;BME280;57902;49.638;11.070;2023-03-21T00:15:48;98487.59;;;7.30;100.00
70445;BME280;57902;49.638;11.070;2023-03-21T00:18:48;98491.91;;;7.28;100.00
70445;BME280;57902;49.638;11.070;2023-03-21T00:21:34;98498.75;;;7.28;100.00
70445;BME280;57902;49.638;11.070;2023-03-21T00:24:33;98490.22;;;7.27;100.00
70445;BME280;57902;49.638;11.070;2023-03-21T00:27:23;98491.94;;;7.24;100.00
70445;BME280;57902;49.638;11.070;2023-03-21T00:30:20;98497.97;;;7.21;100.00
70445;BME280;57902;49.638;11.070;2023-03-21T00:32:54;98487.75;;;7.20;100.00
70445;BME280;57902;49.638;11.070;2023-03-21T00:35:41;98488.59;;;7.18;100.00
70445;BME280;57902;49.638;11.070;2023-03-21T00:38:40;98492.03;;;7.17;100.00
70445;BME280;57902;49.638;11.070;2023-03-21T00:41:11;98489.47;;;7.16;100.00
70445;BME280;57902;49.638;11.070;2023-03-21T00:44:06;98478.41;;;7.15;100.00
70445;BME280;57902;49.638;11.070;2023-03-21T00:46:41;98478.47;;;7.11;100.00
70445;BME280;57902;49.638;11.070;2023-03-21T00:49:24;98475.03;;;7.10;100.00
70445;BME280;57902;49.638;11.070;2023-03-21T00:52:05;98471.66;;;7.08;100.00
70445;BME280;57902;49.638;11.070;2023-03-21T00:54:59;98469.94;;;7.07;100.00
70445;BME280;57902;49.638;11.070;2023-03-21T00:57:26;98461.44;;;7.05;100.00
70445;BME280;57902;49.638;11.070;2023-03-21T01:00:21;98461.44;;;7.05;100.00
70445;BME280;57902;49.638;11.070;2023-03-21T01:02:48;98458.88;;;7.04;100.00
70445;BME280;57902;49.638;11.070;2023-03-21T01:05:38;98460.59;;;7.01;100.00
70445;BME280;57902;49.638;11.070;2023-03-21T01:08:30;98461.53;;;6.96;100.00
70445;BME280;57902;49.638;11.070;2023-03-21T01:11:21;98455.63;;;6.91;100.00
70445;BME280;57902;49.638;11.070;2023-03-21T01:13:55;98449.72;;;6.84;100.00
70445;BME280;57902;49.638;11.070;2023-03-21T01:16:44;98445.56;;;6.74;100.00
70445;BME280;57902;49.638;11.070;2023-03-21T01:19:14;98442.97;;;6.75;100.00
70445;BME280;57902;49.638;11.070;2023-03-21T01:21:53;98440.44;;;6.74;100.00
70445;BME280;57902;49.638;11.070;2023-03-21T01:24:26;98439.63;;;6.70;100.00
70445;BME280;57902;49.638;11.070;2023-03-21T01:26:53;98442.22;;;6.67;100.00
70445;BME280;57902;49.638;11.070;2023-03-21T01:29:46;98432.88;;;6.63;100.00
70445;BME280;57902;49.638;11.070;2023-03-21T01:32:15;98437.25;;;6.52;100.00
70445;BME280;57902;49.638;11.070;2023-03-21T01:34:42;98442.50;;;6.41;100.00
70445;BME280;57902;49.638;11.070;2023-03-21T01:37:11;98441.66;;;6.40;100.00
70445;BME280;57902;49.638;11.070;2023-03-21T01:39:38;98441.66;;;6.40;100.00
70445;BME280;57902;49.638;11.070;2023-03-21T01:42:12;98445.09;;;6.39;100.00
70445;BME280;57902;49.638;11.070;2023-03-21T01:45:05;98440.00;;;6.36;100.00
70445;BME280;57902;49.638;11.070;2023-03-21T01:47:41;98432.41;;;6.28;100.00
70445;BME280;57902;49.638;11.070;2023-03-21T01:50:20;98428.22;;;6.21;100.00
70445;BME280;57902;49.638;11.070;2023-03-21T01:52:48;98429.97;;;6.15;100.00
70445;BME280;57902;49.638;11.070;2023-03-21T01:55:39;98426.63;;;6.09;100.00
70445;BME280;57902;49.638;11.070;2023-03-21T01:58:15;98426.63;;;6.06;100.00
70445;BME280;57902;49.638;11.070;2023-03-21T02:00:46;98422.44;;;6.01;100.00
70445;BME280;57902;49.638;11.070;2023-03-21T02:03:21;98417.34;;;5.98;100.00
70445;BME280;57902;49.638;11.070;2023-03-21T02:06:42;98414.78;;;5.90;100.00
70445;BME280;57902;49.638;11.070;2023-03-21T02:09:18;98419.13;;;5.85;100.00
70445;BME280;57902;49.638;11.070;2023-03-21T02:11:53;98421.72;;;5.75;100.00
70445;BME280;57902;49.638;11.070;2023-03-21T02:14:20;98420.09;;;5.68;100.00
70445;BME280;57902;49.638;11.070;2023-03-21T02:17:18;98416.75;;;5.60;100.00
70445;BME280;57902;49.638;11.070;2023-03-21T02:25:44;98413.38;;;5.58;100.00
70445;BME280;57902;49.638;11.070;2023-03-21T02:28:25;98418.47;;;5.61;100.00
70445;BME280;57902;49.638;11.070;2023-03-21T02:49:14;98417.63;;;5.57;100.00
70445;BME280;57902;49.638;11.070;2023-03-21T02:52:28;98417.59;;;5.59;100.00
70445;BME280;57902;49.638;11.070;2023-03-21T02:55:42;98415.03;;;5.60;100.00
70445;BME280;57902;49.638;11.070;2023-03-21T02:58:31;98417.59;;;5.60;100.00
70445;BME280;57902;49.638;11.070;2023-03-21T03:01:16;98417.53;;;5.65;100.00
70445;BME280;57902;49.638;11.070;2023-03-21T03:13:18;98415.78;;;5.73;100.00
70445;BME280;57902;49.638;11.070;2023-03-21T03:16:14;98412.38;;;5.76;100.00
70445;BME280;57902;49.638;11.070;2023-03-21T03:18:58;98414.91;;;5.79;100.00
70445;BME280;57902;49.638;11.070;2023-03-21T03:26:44;98413.97;;;5.88;100.00
70445;BME280;57902;49.638;11.070;2023-03-21T03:29:15;98408.81;;;5.91;100.00
70445;BME280;57902;49.638;11.070;2023-03-21T03:31:50;98411.34;;;5.94;100.00
70445;BME280;57902;49.638;11.070;2023-03-21T03:34:23;98407.09;;;5.98;100.00
70445;BME280;57902;49.638;11.070;2023-03-21T03:36:55;98408.72;;;6.03;100.00
70445;BME280;57902;49.638;11.070;2023-03-21T03:39:28;98406.13;;;6.06;100.00
70445;BME280;57902;49.638;11.070;2023-03-21T03:42:05;98406.16;;;6.03;100.00
70445;BME280;57902;49.638;11.070;2023-03-21T03:44:52;98407.03;;;6.05;100.00
70445;BME280;57902;49.638;11.070;2023-03-21T03:50:43;98400.16;;;6.07;100.00
70445;BME280;57902;49.638;11.070;2023-03-21T03:53:32;98401.81;;;6.15;100.00
70445;BME280;57902;49.638;11.070;2023-03-21T03:56:00;98395.88;;;6.12;100.00
70445;BME280;57902;49.638;11.070;2023-03-21T03:58:28;98401.00;;;6.12;100.00
70445;BME280;57902;49.638;11.070;2023-03-21T04:01:10;98387.31;;;6.13;100.00
70445;BME280;57902;49.638;11.070;2023-03-21T04:03:39;98398.44;;;6.12;100.00
70445;BME280;57902;49.638;11.070;2023-03-21T04:06:17;98399.31;;;6.08;100.00
70445;BME280;57902;49.638;11.070;2023-03-21T04:08:43;98398.47;;;6.09;100.00
70445;BME280;57902;49.638;11.070;2023-03-21T04:11:13;98389.00;;;6.15;100.00
70445;BME280;57902;49.638;11.070;2023-03-21T04:13:41;98383.94;;;6.11;100.00
70445;BME280;57902;49.638;11.070;2023-03-21T04:16:09;98387.38;;;6.07;100.00
70445;BME280;57902;49.638;11.070;2023-03-21T04:18:37;98389.94;;;6.06;100.00
70445;BME280;57902;49.638;11.070;2023-03-21T04:21:09;98390.78;;;6.06;100.00
70445;BME280;57902;49.638;11.070;2023-03-21T04:23:36;98386.53;;;6.07;100.00
70445;BME280;57902;49.638;11.070;2023-03-21T04:26:03;98384.78;;;6.09;100.00
70445;BME280;57902;49.638;11.070;2023-03-21T04:28:31;98379.69;;;6.09;100.00
70445;BME280;57902;49.638;11.070;2023-03-21T04:30:58;98375.44;;;6.09;100.00
70445;BME280;57902;49.638;11.070;2023-03-21T04:33:34;98380.50;;;6.12;100.00
70445;BME280;57902;49.638;11.070;2023-03-21T04:36:05;98384.72;;;6.15;99.97
70445;BME280;57902;49.638;11.070;2023-03-21T04:38:35;98383.03;;;6.16;100.00
70445;BME280;57902;49.638;11.070;2023-03-21T04:41:02;98380.41;;;6.22;99.35
70445;BME280;57902;49.638;11.070;2023-03-21T04:43:29;98377.88;;;6.19;99.04
70445;BME280;57902;49.638;11.070;2023-03-21T04:45:56;98378.78;;;6.13;99.32
70445;BME280;57902;49.638;11.070;2023-03-21T04:48:22;98379.69;;;6.09;99.03
70445;BME280;57902;49.638;11.070;2023-03-21T04:50:50;98384.84;;;6.04;99.40
70445;BME280;57902;49.638;11.070;2023-03-21T04:53:17;98376.34;;;6.04;99.74
70445;BME280;57902;49.638;11.070;2023-03-21T04:55:43;98385.69;;;6.03;99.97
70445;BME280;57902;49.638;11.070;2023-03-21T04:58:10;98378.94;;;5.99;99.30
70445;BME280;57902;49.638;11.070;2023-03-21T05:00:37;98379.78;;;5.95;98.87
70445;BME280;57902;49.638;11.070;2023-03-21T05:03:05;98380.66;;;5.94;98.01
70445;BME280;57902;49.638;11.070;2023-03-21T05:05:37;98378.94;;;5.94;98.12
70445;BME280;57902;49.638;11.070;2023-03-21T05:08:05;98374.69;;;5.98;98.09
70445;BME280;57902;49.638;11.070;2023-03-21T05:10:32;98374.66;;;5.96;98.46
70445;BME280;57902;49.638;11.070;2023-03-21T05:12:58;98377.22;;;6.00;98.97
70445;BME280;57902;49.638;11.070;2023-03-21T05:15:24;98382.31;;;6.01;98.38
70445;BME280;57902;49.638;11.070;2023-03-21T05:17:51;98380.66;;;5.97;99.03
70445;BME280;57902;49.638;11.070;2023-03-21T05:20:17;98384.94;;;5.92;99.66
70445;BME280;57902;49.638;11.070;2023-03-21T05:22:44;98383.28;;;5.88;100.00
70445;BME280;57902;49.638;11.070;2023-03-21T05:25:11;98388.44;;;5.82;100.00
70445;BME280;57902;49.638;11.070;2023-03-21T05:27:38;98379.06;;;5.81;100.00
70445;BME280;57902;49.638;11.070;2023-03-21T05:30:15;98382.50;;;5.76;100.00
70445;BME280;57902;49.638;11.070;2023-03-21T05:32:42;98385.91;;;5.75;100.00
70445;BME280;57902;49.638;11.070;2023-03-21T05:35:09;98384.22;;;5.77;100.00
70445;BME280;57902;49.638;11.070;2023-03-21T05:37:36;98379.94;;;5.76;100.00
70445;BME280;57902;49.638;11.070;2023-03-21T05:40:04;98390.09;;;5.89;100.00
70445;BME280;57902;49.638;11.070;2023-03-21T05:42:32;98390.09;;;5.84;100.00
70445;BME280;57902;49.638;11.070;2023-03-21T05:44:58;98390.91;;;5.91;100.00
70445;BME280;57902;49.638;11.070;2023-03-21T05:47:26;98393.50;;;5.88;100.00
70445;BME280;57902;49.638;11.070;2023-03-21T05:49:52;98394.28;;;5.99;100.00
70445;BME280;57902;49.638;11.070;2023-03-21T05:52:19;98395.09;;;6.04;99.90
70445;BME280;57902;49.638;11.070;2023-03-21T05:54:45;98402.63;;;6.20;99.42
70445;BME280;57902;49.638;11.070;2023-03-21T05:57:12;98403.34;;;6.31;98.61
70445;BME280;57902;49.638;11.070;2023-03-21T05:59:38;98401.66;;;6.32;98.97
70445;BME280;57902;49.638;11.070;2023-03-21T06:02:05;98407.47;;;6.43;97.99
70445;BME280;57902;49.638;11.070;2023-03-21T06:04:31;98403.28;;;6.39;98.31
70445;BME280;57902;49.638;11.070;2023-03-21T06:06:58;98415.09;;;6.51;97.89
70445;BME280;57902;49.638;11.070;2023-03-21T06:09:25;98410.75;;;6.57;97.96
70445;BME280;57902;49.638;11.070;2023-03-21T06:11:53;98408.19;;;6.56;98.04
70445;BME280;57902;49.638;11.070;2023-03-21T06:14:21;98409.94;;;6.54;98.89
70445;BME280;57902;49.638;11.070;2023-03-21T06:16:47;98418.34;;;6.65;98.17
70445;BME280;57902;49.638;11.070;2023-03-21T06:19:14;98419.00;;;6.81;97.26
70445;BME280;57902;49.638;11.070;2023-03-21T06:21:41;98414.44;;;7.03;96.39
70445;BME280;57902;49.638;11.070;2023-03-21T06:24:08;98416.84;;;7.17;94.50
70445;BME280;57902;49.638;11.070;2023-03-21T06:26:35;98412.31;;;7.36;93.69
70445;BME280;57902;49.638;11.070;2023-03-21T06:29:02;98416.19;;;7.60;93.24
70445;BME280;57902;49.638;11.070;2023-03-21T06:31:29;98414.09;;;7.87;90.21
70445;BME280;57902;49.638;11.070;2023-03-21T06:33:56;98414.53;;;8.11;88.98
70445;BME280;57902;49.638;11.070;2023-03-21T06:36:22;98417.59;;;8.31;87.15
70445;BME280;57902;49.638;11.070;2023-03-21T06:38:48;98421.22;;;8.68;84.31
70445;BME280;57902;49.638;11.070;2023-03-21T06:41:15;98420.47;;;9.05;82.99
70445;BME280;57902;49.638;11.070;2023-03-21T06:43:42;98417.47;;;9.23;80.75
70445;BME280;57902;49.638;11.070;2023-03-21T06:46:09;98415.94;;;9.16;80.81
70445;BME280;57902;49.638;11.070;2023-03-21T06:48:36;98418.06;;;9.36;79.80
70445;BME280;57902;49.638;11.070;2023-03-21T06:51:04;98422.06;;;9.48;78.59
70445;BME280;57902;49.638;11.070;2023-03-21T06:53:31;98421.50;;;9.37;79.94
70445;BME280;57902;49.638;11.070;2023-03-21T06:56:01;98416.34;;;9.37;77.67
70445;BME280;57902;49.638;11.070;2023-03-21T06:58:27;98419.50;;;9.48;77.26
70445;BME280;57902;49.638;11.070;2023-03-21T07:00:57;98416.63;;;9.62;77.20
70445;BME280;57902;49.638;11.070;2023-03-21T07:03:24;98416.50;;;9.67;75.25
70445;BME280;57902;49.638;11.070;2023-03-21T07:05:50;98418.09;;;9.35;76.07
70445;BME280;57902;49.638;11.070;2023-03-21T07:08:17;98413.34;;;9.55;77.12
70445;BME280;57902;49.638;11.070;2023-03-21T07:10:44;98414.00;;;9.63;76.14
70445;BME280;57902;49.638;11.070;2023-03-21T07:13:12;98412.31;;;9.62;75.91
70445;BME280;57902;49.638;11.070;2023-03-21T07:15:39;98415.25;;;9.83;75.33
70445;BME280;57902;49.638;11.070;2023-03-21T07:18:08;98416.13;;;9.82;74.29
70445;BME280;57902;49.638;11.070;2023-03-21T07:20:35;98418.25;;;9.66;75.19
70445;BME280;57902;49.638;11.070;2023-03-21T07:23:03;98413.78;;;9.73;75.74
70445;BME280;57902;49.638;11.070;2023-03-21T07:25:30;98411.56;;;9.93;75.02
70445;BME280;57902;49.638;11.070;2023-03-21T07:27:56;98413.53;;;9.82;73.67
70445;BME280;57902;49.638;11.070;2023-03-21T07:30:23;98417.59;;;9.92;73.51
70445;BME280;57902;49.638;11.070;2023-03-21T07:32:49;98414.88;;;9.98;74.11
70445;BME280;57902;49.638;11.070;2023-03-21T07:35:16;98416.50;;;10.01;72.91
70445;BME280;57902;49.638;11.070;2023-03-21T07:37:43;98419.91;;;10.03;73.44
70445;BME280;57902;49.638;11.070;2023-03-21T07:40:10;98429.44;;;9.99;73.55
70445;BME280;57902;49.638;11.070;2023-03-21T07:42:39;98428.19;;;10.16;72.55
70445;BME280;57902;49.638;11.070;2023-03-21T07:45:07;98428.19;;;10.16;71.72
70445;BME280;57902;49.638;11.070;2023-03-21T07:47:36;98419.88;;;10.05;72.31
70445;BME280;57902;49.638;11.070;2023-03-21T07:50:02;98422.13;;;10.17;72.97
70445;BME280;57902;49.638;11.070;2023-03-21T07:52:30;98428.69;;;10.29;72.28
70445;BME280;57902;49.638;11.070;2023-03-21T07:54:56;98432.22;;;10.26;72.47
70445;BME280;57902;49.638;11.070;2023-03-21T07:57:23;98421.88;;;10.28;71.68
70445;BME280;57902;49.638;11.070;2023-03-21T07:59:49;98425.63;;;10.49;72.09
70445;BME280;57902;49.638;11.070;2023-03-21T08:02:16;98427.31;;;10.50;71.66
70445;BME280;57902;49.638;11.070;2023-03-21T08:04:44;98422.47;;;10.38;72.90
70445;BME280;57902;49.638;11.070;2023-03-21T08:07:11;98422.03;;;10.55;71.94
70445;BME280;57902;49.638;11.070;2023-03-21T08:09:37;98431.44;;;10.57;71.44
70445;BME280;57902;49.638;11.070;2023-03-21T08:12:05;98426.97;;;10.62;71.62
70445;BME280;57902;49.638;11.070;2023-03-21T08:14:33;98427.63;;;10.38;70.99
70445;BME280;57902;49.638;11.070;2023-03-21T08:17:02;98427.91;;;10.60;70.21
70445;BME280;57902;49.638;11.070;2023-03-21T08:19:29;98433.31;;;10.82;69.23
70445;BME280;57902;49.638;11.070;2023-03-21T08:21:56;98428.47;;;11.01;68.86
70445;BME280;57902;49.638;11.070;2023-03-21T08:24:27;98439.03;;;11.21;66.76
70445;BME280;57902;49.638;11.070;2023-03-21T08:26:54;98436.25;;;11.29;67.34
70445;BME280;57902;49.638;11.070;2023-03-21T08:29:21;98431.31;;;11.50;66.13
70445;BME280;57902;49.638;11.070;2023-03-21T08:31:48;98431.75;;;11.64;65.36
70445;BME280;57902;49.638;11.070;2023-03-21T08:34:14;98424.88;;;11.63;63.83
70445;BME280;57902;49.638;11.070;2023-03-21T08:36:43;98421.63;;;12.12;63.64
70445;BME280;57902;49.638;11.070;2023-03-21T08:39:09;98420.06;;;12.56;60.89
70445;BME280;57902;49.638;11.070;2023-03-21T08:41:36;98409.03;;;12.76;61.43
70445;BME280;57902;49.638;11.070;2023-03-21T08:44:04;98413.19;;;13.04;60.35
70445;BME280;57902;49.638;11.070;2023-03-21T08:46:32;98411.56;;;13.24;57.89
70445;BME280;57902;49.638;11.070;2023-03-21T08:48:59;98410.91;;;13.19;58.53
70445;BME280;57902;49.638;11.070;2023-03-21T08:51:25;98406.31;;;13.25;56.87
70445;BME280;57902;49.638;11.070;2023-03-21T08:53:52;98407.66;;;12.90;58.53
70445;BME280;57902;49.638;11.070;2023-03-21T08:56:18;98410.06;;;13.18;58.40
70445;BME280;57902;49.638;11.070;2023-03-21T08:58:45;98393.31;;;13.05;58.54
70445;BME280;57902;49.638;11.070;2023-03-21T09:01:12;98393.09;;;12.87;58.59
70445;BME280;57902;49.638;11.070;2023-03-21T09:03:41;98396.06;;;13.00;57.89
70445;BME280;57902;49.638;11.070;2023-03-21T09:06:09;98397.00;;;13.21;58.59
70445;BME280;57902;49.638;11.070;2023-03-21T09:08:37;98393.66;;;12.95;58.00
70445;BME280;57902;49.638;11.070;2023-03-21T09:11:04;98398.94;;;13.16;56.75
70445;BME280;57902;49.638;11.070;2023-03-21T09:13:30;98389.41;;;13.17;56.99
70445;BME280;57902;49.638;11.070;2023-03-21T09:15:57;98399.44;;;13.26;57.19
70445;BME280;57902;49.638;11.070;2023-03-21T09:18:27;98391.28;;;13.79;53.86
70445;BME280;57902;49.638;11.070;2023-03-21T09:21:14;98399.34;;;13.94;54.39
70445;BME280;57902;49.638;11.070;2023-03-21T09:23:42;98392.47;;;13.93;52.75
70445;BME280;57902;49.638;11.070;2023-03-21T09:26:10;98391.03;;;13.86;52.92
70445;BME280;57902;49.638;11.070;2023-03-21T09:28:38;98390.47;;;13.99;52.42
70445;BME280;57902;49.638;11.070;2023-03-21T09:31:06;98391.91;;;13.42;53.79
70445;BME280;57902;49.638;11.070;2023-03-21T09:33:37;98387.84;;;13.79;53.29
70445;BME280;57902;49.638;11.070;2023-03-21T09:36:06;98384.25;;;14.04;53.94
70445;BME280;57902;49.638;11.070;2023-03-21T09:38:39;98370.56;;;14.21;52.25
70445;BME280;57902;49.638;11.070;2023-03-21T09:41:16;98370.41;;;14.24;52.39
70445;BME280;57902;49.638;11.070;2023-03-21T09:44:17;98376.72;;;14.58;51.18
70445;BME280;57902;49.638;11.070;2023-03-21T09:49:30;98380.91;;;15.00;50.37
70445;BME280;57902;49.638;11.070;2023-03-21T09:52:02;98383.72;;;14.95;50.64
70445;BME280;57902;49.638;11.070;2023-03-21T09:54:36;98382.38;;;14.67;51.24
70445;BME280;57902;49.638;11.070;2023-03-21T09:57:15;98375.13;;;14.95;51.32
70445;BME280;57902;49.638;11.070;2023-03-21T09:59:46;98369.84;;;15.15;51.43
70445;BME280;57902;49.638;11.070;2023-03-21T10:02:42;98365.19;;;15.03;51.11
70445;BME280;57902;49.638;11.070;2023-03-21T10:05:18;98365.06;;;15.06;51.41
70445;BME280;57902;49.638;11.070;2023-03-21T10:07:51;98359.41;;;14.98;51.51
70445;BME280;57902;49.638;11.070;2023-03-21T10:10:24;98355.31;;;14.73;51.72
70445;BME280;57902;49.638;11.070;2023-03-21T10:12:54;98357.06;;;14.92;51.42
70445;BME280;57902;49.638;11.070;2023-03-21T10:15:39;98351.03;;;14.91;51.38
70445;BME280;57902;49.638;11.070;2023-03-21T10:18:49;98356.38;;;14.48;52.53
70445;BME280;57902;49.638;11.070;2023-03-21T10:21:20;98345.25;;;14.46;53.65
70445;BME280;57902;49.638;11.070;2023-03-21T10:24:22;98338.59;;;14.60;52.56
70445;BME280;57902;49.638;11.070;2023-03-21T10:26:52;98338.22;;;14.48;52.36
70445;BME280;57902;49.638;11.070;2023-03-21T10:29:23;98339.38;;;14.22;55.53
70445;BME280;57902;49.638;11.070;2023-03-21T10:31:53;98331.16;;;14.33;53.85
70445;BME280;57902;49.638;11.070;2023-03-21T10:34:29;98326.59;;;14.38;54.46
70445;BME280;57902;49.638;11.070;2023-03-21T10:36:58;98328.38;;;14.57;53.14
70445;BME280;57902;49.638;11.070;2023-03-21T10:41:56;98326.13;;;14.68;49.55
70445;BME280;57902;49.638;11.070;2023-03-21T10:44:36;98322.34;;;14.75;48.42
70445;BME280;57902;49.638;11.070;2023-03-21T10:47:08;98319.06;;;14.91;47.83
70445;BME280;57902;49.638;11.070;2023-03-21T10:49:36;98323.28;;;14.93;46.71
70445;BME280;57902;49.638;11.070;2023-03-21T10:52:26;98319.56;;;14.59;46.05
70445;BME280;57902;49.638;11.070;2023-03-21T10:55:06;98319.59;;;14.78;46.36
70445;BME280;57902;49.638;11.070;2023-03-21T10:57:34;98306.63;;;14.78;47.01
70445;BME280;57902;49.638;11.070;2023-03-21T11:00:04;98305.91;;;14.56;47.60
70445;BME280;57902;49.638;11.070;2023-03-21T11:02:47;98307.34;;;14.82;45.39
70445;BME280;57902;49.638;11.070;2023-03-21T11:05:37;98308.31;;;14.79;47.06
70445;BME280;57902;49.638;11.070;2023-03-21T11:08:10;98306.63;;;14.78;45.40
70445;BME280;57902;49.638;11.070;2023-03-21T11:13:26;98303.72;;;14.67;46.40
70445;BME280;57902;49.638;11.070;2023-03-21T11:16:05;98304.25;;;14.15;45.59
70445;BME280;57902;49.638;11.070;2023-03-21T11:18:32;98293.44;;;14.26;47.08
70445;BME280;57902;49.638;11.070;2023-03-21T11:21:06;98292.84;;;14.19;47.50
70445;BME280;57902;49.638;11.070;2023-03-21T11:23:39;98293.31;;;14.48;48.03
70445;BME280;57902;49.638;11.070;2023-03-21T11:26:11;98291.63;;;14.47;49.51
70445;BME280;57902;49.638;11.070;2023-03-21T11:28:42;98286.59;;;14.63;49.31
70445;BME280;57902;49.638;11.070;2023-03-21T11:31:10;98288.00;;;14.70;48.10
70445;BME280;57902;49.638;11.070;2023-03-21T11:34:06;98284.81;;;14.44;48.83
70445;BME280;57902;49.638;11.070;2023-03-21T11:36:36;98282.50;;;14.57;48.68
70445;BME280;57902;49.638;11.070;2023-03-21T11:41:39;98282.50;;;14.95;47.94
70445;BME280;57902;49.638;11.070;2023-03-21T11:44:08;98271.75;;;15.03;48.44
70445;BME280;57902;49.638;11.070;2023-03-21T11:46:49;98274.78;;;14.94;47.91
70445;BME280;57902;49.638;11.070;2023-03-21T11:49:19;98274.31;;;14.66;49.29
70445;BME280;57902;49.638;11.070;2023-03-21T11:57:25;98262.53;;;14.78;49.51
70445;BME280;57902;49.638;11.070;2023-03-21T12:00:14;98253.34;;;15.08;48.55
70445;BME280;57902;49.638;11.070;2023-03-21T12:03:01;98251.81;;;15.21;49.78
70445;BME280;57902;49.638;11.070;2023-03-21T12:05:38;98256.09;;;15.22;48.57
70445;BME280;57902;49.638;11.070;2023-03-21T12:10:57;98244.13;;;15.19;50.40
70445;BME280;57902;49.638;11.070;2023-03-21T12:16:26;98239.47;;;15.44;48.92
70445;BME280;57902;49.638;11.070;2023-03-21T12:19:10;98235.88;;;15.46;49.28
70445;BME280;57902;49.638;11.070;2023-03-21T12:24:24;98216.50;;;15.36;49.42
70445;BME280;57902;49.638;11.070;2023-03-21T12:27:23;98223.81;;;15.45;49.65
70445;BME280;57902;49.638;11.070;2023-03-21T12:30:10;98214.09;;;15.49;50.51
70445;BME280;57902;49.638;11.070;2023-03-21T12:33:42;98198.97;;;15.04;51.15
70445;BME280;57902;49.638;11.070;2023-03-21T12:38:29;98199.53;;;15.46;50.64
70445;BME280;57902;49.638;11.070;2023-03-21T12:43:43;98195.59;;;15.72;50.83
70445;BME280;57902;49.638;11.070;2023-03-21T12:46:31;98197.81;;;15.80;49.33
70445;BME280;57902;49.638;11.070;2023-03-21T12:49:35;98192.59;;;15.80;49.13
70445;BME280;57902;49.638;11.070;2023-03-21T12:52:05;98188.41;;;15.60;49.33
70445;BME280;57902;49.638;11.070;2023-03-21T12:57:13;98175.41;;;15.60;50.22
70445;BME280;57902;49.638;11.070;2023-03-21T12:59:54;98177.78;;;15.47;53.00
70445;BME280;57902;49.638;11.070;2023-03-21T13:02:28;98181.00;;;15.52;50.47
70445;BME280;57902;49.638;11.070;2023-03-21T13:05:19;98173.59;;;15.62;50.77
70445;BME280;57902;49.638;11.070;2023-03-21T13:07:51;98174.66;;;15.58;51.48
70445;BME280;57902;49.638;11.070;2023-03-21T13:10:20;98167.63;;;15.60;51.27
70445;BME280;57902;49.638;11.070;2023-03-21T13:13:08;98162.19;;;15.65;50.95
70445;BME280;57902;49.638;11.070;2023-03-21T13:20:51;98150.88;;;15.66;51.06
70445;BME280;57902;49.638;11.070;2023-03-21T13:23:21;98153.75;;;15.77;50.39
70445;BME280;57902;49.638;11.070;2023-03-21T13:25:50;98143.22;;;15.80;51.65
70445;BME280;57902;49.638;11.070;2023-03-21T13:28:25;98145.69;;;15.99;50.81
70445;BME280;57902;49.638;11.070;2023-03-21T13:33:44;98148.47;;;16.12;51.00
70445;BME280;57902;49.638;11.070;2023-03-21T13:36:12;98145.34;;;16.21;49.90
70445;BME280;57902;49.638;11.070;2023-03-21T13:38:40;98142.66;;;16.07;49.68
70445;BME280;57902;49.638;11.070;2023-03-21T13:41:11;98143.00;;;16.01;48.81
70445;BME280;57902;49.638;11.070;2023-03-21T13:51:43;98124.19;;;16.12;48.65
70445;BME280;57902;49.638;11.070;2023-03-21T13:59:34;98119.50;;;16.34;48.81
70445;BME280;57902;49.638;11.070;2023-03-21T14:04:38;98117.78;;;16.49;47.91
70445;BME280;57902;49.638;11.070;2023-03-21T14:07:24;98109.41;;;16.28;50.10
70445;BME280;57902;49.638;11.070;2023-03-21T14:09:54;98110.28;;;16.29;48.95
70445;BME280;57902;49.638;11.070;2023-03-21T14:12:27;98106.81;;;16.28;49.55
70445;BME280;57902;49.638;11.070;2023-03-21T14:15:05;98110.09;;;16.16;50.08
70445;BME280;57902;49.638;11.070;2023-03-21T14:17:50;98099.72;;;16.16;50.79
70445;BME280;57902;49.638;11.070;2023-03-21T14:20:27;98102.22;;;16.17;50.51
70445;BME280;57902;49.638;11.070;2023-03-21T14:22:54;98103.31;;;16.13;50.79
70445;BME280;57902;49.638;11.070;2023-03-21T14:25:23;98100.44;;;16.18;49.21
70445;BME280;57902;49.638;11.070;2023-03-21T14:28:05;98100.97;;;16.24;49.77
70445;BME280;57902;49.638;11.070;2023-03-21T14:30:36;98101.13;;;16.21;50.16
70445;BME280;57902;49.638;11.070;2023-03-21T14:33:14;98084.91;;;16.32;50.25
70445;BME280;57902;49.638;11.070;2023-03-21T14:35:44;98092.16;;;16.27;49.99
70445;BME280;57902;49.638;11.070;2023-03-21T14:38:22;98088.19;;;16.36;49.10
70445;BME280;57902;49.638;11.070;2023-03-21T14:40:52;98085.59;;;16.36;48.65
70445;BME280;57902;49.638;11.070;2023-03-21T14:43:21;98079.41;;;16.22;49.98
70445;BME280;57902;49.638;11.070;2023-03-21T14:45:54;98078.88;;;16.32;49.95
70445;BME280;57902;49.638;11.070;2023-03-21T14:48:30;98077.56;;;16.24;50.10
70445;BME280;57902;49.638;11.070;2023-03-21T14:51:01;98080.31;;;16.21;50.24
70445;BME280;57902;49.638;11.070;2023-03-21T14:53:35;98080.06;;;16.10;50.16
70445;BME280;57902;49.638;11.070;2023-03-21T14:58:44;98079.66;;;16.18;49.99
70445;BME280;57902;49.638;11.070;2023-03-21T15:01:15;98079.34;;;16.08;50.36
70445;BME280;57902;49.638;11.070;2023-03-21T15:03:45;98079.41;;;15.90;51.13
70445;BME280;57902;49.638;11.070;2023-03-21T15:06:12;98083.63;;;15.93;51.06